Glen, Montana
Current Conditions -  °F | °C
As of 7:53 AM on Sunday 23 Nov 2014 (Local Time) from KDLN Reporting Station
Broken Clouds Broken Clouds  
Wind Chill: 17°   Ceiling: 7500
Heat Index: 28°   Visibility: 10mi
Dew Point: 16°   Wind: 15mph
Humidity: 61%   Direction: 230°SW
Pressure: 30.01"   Gusts: NA
Location:  45.48°N, 112.69°W
Report Text: KDLN 231453Z AUTO 23013KT 10SM BKN075 M02/M09 A3001 RMK AO2 SLP193 T10221089 51021
Loading
Personal Weather Stations






























Interactive Weather Map New forecast layout! Learn more

10-Day Weather Forecast

Advertisements
Track Severe Weather on mobile